Crawford, Colorado
Current Conditions -  °F | °C
As of 10:53 AM on Friday 21 Nov 2014 (Local Time) from KMTJ Reporting Station
Clear Clear  
Wind Chill: 41°   Ceiling: Unl
Heat Index: 41°   Visibility: 10mi
Dew Point: 20°   Wind: 0mph
Humidity: 43%   Direction: NA
Pressure: 30.11"   Gusts: NA
Location:  38.7°N, 107.61°W
Report Text: KMTJ 211753Z AUTO 00000KT 10SM CLR 05/M07 A3011 RMK AO2 SLP185 T00501067 10050 21078 58003
Loading
Personal Weather Stations






























Interactive Weather Map New forecast layout! Learn more

10-Day Weather Forecast

Advertisements
Track Severe Weather on mobile